36.1°F
Current conditions from King Hill
Updated every 5 minutes
 
  Wednesday December 17, 2014

Station Historical Data
Daily Summary for April 24, 2012 Units:  Both    English   Metric
« Previous Day
Next Day »
Daily Weekly Monthly Yearly Custom
  High: Low: Average:
Temperature: 48.8 °F /  9.3 °C 37.8 °F /  3.2 °C 43.5 °F /  6.4 °C
Dew Point: 42.7 °F /  5.9 °C 30.6 °F /  -0.8 °C 35.6 °F /  2 °C
Humidity: 90% 57% 74%
Wind Speed: 15.0mph /  24.1km/h - 6.2mph /  10km/h
Wind Gust: 26.0mph /  41.8km/h - -
Wind- - SSW
Pressure: 29.55 in /  1000.6 hPa 29.20 in /  988.7 hPa -
Precipitation: 0.25 in /  6.4 mm    
Historical Graphs
 
 
Tabular Data for April 24, 2012
Time Temperature Dew Point Pressure Wind Wind Speed Wind Gust Humidity Daily Rainfall
00:04 45.8 °F /  7.7 °C 42.7 °F /  5.9 °C 29.20in /  988.7hPa SSW 2.0mph /  3.2km/h 9.0mph /  14.5km/h 89% 0.00in /  0mm
00:09 45.9 °F /  7.7 °C 42.5 °F /  5.8 °C 29.20in /  988.7hPa SSW 3.0mph /  4.8km/h 12.0mph /  19.3km/h 88% 0.00in /  0mm
00:14 46.0 °F /  7.8 °C 42.6 °F /  5.9 °C 29.22in /  989.4hPa SSW 3.0mph /  4.8km/h 12.0mph /  19.3km/h 88% 0.00in /  0mm
00:19 45.9 °F /  7.7 °C 42.3 °F /  5.7 °C 29.23in /  989.7hPa South 1.0mph /  1.6km/h 9.0mph /  14.5km/h 87% 0.00in /  0mm
00:24 45.9 °F /  7.7 °C 42.3 °F /  5.7 °C 29.23in /  989.7hPa South 4.0mph /  6.4km/h 9.0mph /  14.5km/h 87% 0.00in /  0mm
00:35 46.1 °F /  7.8 °C 42.1 °F /  5.6 °C 29.24in /  990.1hPa South 2.0mph /  3.2km/h 11.0mph /  17.7km/h 86% 0.00in /  0mm
00:44 46.3 °F /  7.9 °C 42.3 °F /  5.7 °C 29.23in /  989.7hPa SSW 5.0mph /  8km/h 11.0mph /  17.7km/h 86% 0.00in /  0mm
00:49 46.2 °F /  7.9 °C 41.9 °F /  5.5 °C 29.23in /  989.7hPa SSW 1.0mph /  1.6km/h 11.0mph /  17.7km/h 85% 0.00in /  0mm
00:54 45.9 °F /  7.7 °C 41.6 °F /  5.3 °C 29.22in /  989.4hPa Calm   8.0mph /  12.9km/h 85% 0.00in /  0mm
00:59 45.8 °F /  7.7 °C 41.9 °F /  5.5 °C 29.21in /  989.1hPa SSW 2.0mph /  3.2km/h 9.0mph /  14.5km/h 86% 0.00in /  0mm
01:04 45.8 °F /  7.7 °C 41.9 °F /  5.5 °C 29.22in /  989.4hPa Calm   9.0mph /  14.5km/h 86% 0.00in /  0mm
01:09 45.7 °F /  7.6 °C 41.8 °F /  5.4 °C 29.22in /  989.4hPa Calm   6.0mph /  9.7km/h 86% 0.00in /  0mm
01:14 45.5 °F /  7.5 °C 41.3 °F /  5.2 °C 29.23in /  989.7hPa Calm   5.0mph /  8km/h 85% 0.00in /  0mm
01:19 45.4 °F /  7.4 °C 41.2 °F /  5.1 °C 29.23in /  989.7hPa South 2.0mph /  3.2km/h 7.0mph /  11.3km/h 85% 0.00in /  0mm
01:24 45.4 °F /  7.4 °C 41.2 °F /  5.1 °C 29.22in /  989.4hPa Calm   7.0mph /  11.3km/h 85% 0.00in /  0mm
01:29 45.6 °F /  7.6 °C 40.7 °F /  4.8 °C 29.20in /  988.7hPa Calm   5.0mph /  8km/h 83% 0.00in /  0mm
01:34 45.7 °F /  7.6 °C 40.5 °F /  4.7 °C 29.21in /  989.1hPa Calm   5.0mph /  8km/h 82% 0.00in /  0mm
01:39 45.5 °F /  7.5 °C 40.0 °F /  4.4 °C 29.22in /  989.4hPa South 1.0mph /  1.6km/h 9.0mph /  14.5km/h 81% 0.00in /  0mm
01:44 45.6 °F /  7.6 °C 40.1 °F /  4.5 °C 29.22in /  989.4hPa Calm   9.0mph /  14.5km/h 81% 0.01in /  0.3mm
01:49 45.4 °F /  7.4 °C 39.9 °F /  4.4 °C 29.22in /  989.4hPa SSW 3.0mph /  4.8km/h 9.0mph /  14.5km/h 81% 0.01in /  0.3mm
01:54 45.8 °F /  7.7 °C 39.7 °F /  4.3 °C 29.21in /  989.1hPa SSE 2.0mph /  3.2km/h 10.0mph /  16.1km/h 79% 0.01in /  0.3mm
01:59 46.0 °F /  7.8 °C 39.5 °F /  4.2 °C 29.22in /  989.4hPa SE 1.0mph /  1.6km/h 10.0mph /  16.1km/h 78% 0.01in /  0.3mm
02:04 46.2 °F /  7.9 °C 39.4 °F /  4.1 °C 29.21in /  989.1hPa SSW 2.0mph /  3.2km/h 12.0mph /  19.3km/h 77% 0.01in /  0.3mm
02:09 46.2 °F /  7.9 °C 39.4 °F /  4.1 °C 29.21in /  989.1hPa Calm   12.0mph /  19.3km/h 77% 0.01in /  0.3mm
02:14 45.9 °F /  7.7 °C 39.4 °F /  4.1 °C 29.20in /  988.7hPa SSW 1.0mph /  1.6km/h 7.0mph /  11.3km/h 78% 0.01in /  0.3mm
02:19 46.0 °F /  7.8 °C 39.5 °F /  4.2 °C 29.20in /  988.7hPa SSW 1.0mph /  1.6km/h 14.0mph /  22.5km/h 78% 0.01in /  0.3mm
02:24 46.1 °F /  7.8 °C 39.3 °F /  4.1 °C 29.20in /  988.7hPa Calm   14.0mph /  22.5km/h 77% 0.01in /  0.3mm
02:29 46.7 °F /  8.2 °C 39.9 °F /  4.4 °C 29.20in /  988.7hPa SSW 5.0mph /  8km/h 12.0mph /  19.3km/h 77% 0.01in /  0.3mm
02:34 46.4 °F /  8 °C 40.2 °F /  4.6 °C 29.21in /  989.1hPa SSW 8.0mph /  12.9km/h 17.0mph /  27.4km/h 79% 0.01in /  0.3mm
02:39 45.9 °F /  7.7 °C 40.1 °F /  4.5 °C 29.21in /  989.1hPa South 5.0mph /  8km/h 17.0mph /  27.4km/h 80% 0.01in /  0.3mm
02:44 45.3 °F /  7.4 °C 39.5 °F /  4.2 °C 29.21in /  989.1hPa SSW 4.0mph /  6.4km/h 12.0mph /  19.3km/h 80% 0.01in /  0.3mm
02:49 44.8 °F /  7.1 °C 39.3 °F /  4.1 °C 29.21in /  989.1hPa SW 5.0mph /  8km/h 14.0mph /  22.5km/h 81% 0.01in /  0.3mm
02:54 44.2 °F /  6.8 °C 39.1 °F /  3.9 °C 29.21in /  989.1hPa SSW 6.0mph /  9.7km/h 14.0mph /  22.5km/h 82% 0.01in /  0.3mm
02:59 43.6 °F /  6.4 °C 38.8 °F /  3.8 °C 29.22in /  989.4hPa SSW 6.0mph /  9.7km/h 15.0mph /  24.1km/h 83% 0.01in /  0.3mm
03:04 43.1 °F /  6.2 °C 38.6 °F /  3.7 °C 29.22in /  989.4hPa SSW 5.0mph /  8km/h 15.0mph /  24.1km/h 84% 0.01in /  0.3mm
03:09 42.7 °F /  5.9 °C 38.2 °F /  3.4 °C 29.21in /  989.1hPa SSW 5.0mph /  8km/h 10.0mph /  16.1km/h 84% 0.01in /  0.3mm
03:14 42.4 °F /  5.8 °C 38.2 °F /  3.4 °C 29.22in /  989.4hPa SSW 3.0mph /  4.8km/h 14.0mph /  22.5km/h 85% 0.02in /  0.5mm
03:19 42.2 °F /  5.7 °C 38.3 °F /  3.5 °C 29.21in /  989.1hPa SSW 4.0mph /  6.4km/h 14.0mph /  22.5km/h 86% 0.02in /  0.5mm
03:24 42.0 °F /  5.6 °C 38.1 °F /  3.4 °C 29.21in /  989.1hPa SSW 7.0mph /  11.3km/h 12.0mph /  19.3km/h 86% 0.02in /  0.5mm
03:29 42.0 °F /  5.6 °C 38.4 °F /  3.6 °C 29.21in /  989.1hPa SSW 5.0mph /  8km/h 12.0mph /  19.3km/h 87% 0.02in /  0.5mm
03:34 41.9 °F /  5.5 °C 38.3 °F /  3.5 °C 29.21in /  989.1hPa SSW 1.0mph /  1.6km/h 10.0mph /  16.1km/h 87% 0.02in /  0.5mm
03:39 41.9 °F /  5.5 °C 38.3 °F /  3.5 °C 29.21in /  989.1hPa SW 4.0mph /  6.4km/h 9.0mph /  14.5km/h 87% 0.02in /  0.5mm
03:44 41.8 °F /  5.4 °C 38.5 °F /  3.6 °C 29.21in /  989.1hPa SW 7.0mph /  11.3km/h 12.0mph /  19.3km/h 88% 0.02in /  0.5mm
03:49 41.9 °F /  5.5 °C 38.6 °F /  3.7 °C 29.21in /  989.1hPa SW 4.0mph /  6.4km/h 12.0mph /  19.3km/h 88% 0.02in /  0.5mm
03:54 41.8 °F /  5.4 °C 38.5 °F /  3.6 °C 29.21in /  989.1hPa SW 4.0mph /  6.4km/h 11.0mph /  17.7km/h 88% 0.02in /  0.5mm
03:59 41.7 °F /  5.4 °C 38.7 °F /  3.7 °C 29.21in /  989.1hPa SSW 3.0mph /  4.8km/h 9.0mph /  14.5km/h 89% 0.02in /  0.5mm
04:04 41.7 °F /  5.4 °C 38.7 °F /  3.7 °C 29.21in /  989.1hPa SSW 4.0mph /  6.4km/h 9.0mph /  14.5km/h 89% 0.02in /  0.5mm
04:09 41.7 °F /  5.4 °C 38.7 °F /  3.7 °C 29.21in /  989.1hPa SW 1.0mph /  1.6km/h 9.0mph /  14.5km/h 89% 0.04in /  1mm
04:14 41.7 °F /  5.4 °C 39.0 °F /  3.9 °C 29.21in /  989.1hPa Calm   11.0mph /  17.7km/h 90% 0.05in /  1.3mm
04:19 41.8 °F /  5.4 °C 39.1 °F /  3.9 °C 29.21in /  989.1hPa SW 2.0mph /  3.2km/h 11.0mph /  17.7km/h 90% 0.06in /  1.5mm
04:24 41.7 °F /  5.4 °C 39.0 °F /  3.9 °C 29.21in /  989.1hPa SSW 5.0mph /  8km/h 15.0mph /  24.1km/h 90% 0.07in /  1.8mm
04:29 41.7 °F /  5.4 °C 39.0 °F /  3.9 °C 29.21in /  989.1hPa SSW 5.0mph /  8km/h 15.0mph /  24.1km/h 90% 0.08in /  2mm
04:34 41.6 °F /  5.3 °C 38.9 °F /  3.8 °C 29.21in /  989.1hPa SW 8.0mph /  12.9km/h 15.0mph /  24.1km/h 90% 0.10in /  2.5mm
04:39 41.6 °F /  5.3 °C 38.6 °F /  3.7 °C 29.21in /  989.1hPa SSW 3.0mph /  4.8km/h 15.0mph /  24.1km/h 89% 0.10in /  2.5mm
04:44 41.5 °F /  5.3 °C 38.5 °F /  3.6 °C 29.21in /  989.1hPa SSW 4.0mph /  6.4km/h 11.0mph /  17.7km/h 89% 0.11in /  2.8mm
04:49 41.3 °F /  5.2 °C 38.3 °F /  3.5 °C 29.21in /  989.1hPa SSW 4.0mph /  6.4km/h 10.0mph /  16.1km/h 89% 0.11in /  2.8mm
04:54 41.2 °F /  5.1 °C 38.2 °F /  3.4 °C 29.21in /  989.1hPa SSW 4.0mph /  6.4km/h 12.0mph /  19.3km/h 89% 0.11in /  2.8mm
04:59 41.2 °F /  5.1 °C 38.2 °F /  3.4 °C 29.21in /  989.1hPa South 1.0mph /  1.6km/h 12.0mph /  19.3km/h 89% 0.11in /  2.8mm
05:04 41.1 °F /  5.1 °C 38.4 °F /  3.6 °C 29.21in /  989.1hPa SSW 3.0mph /  4.8km/h 9.0mph /  14.5km/h 90% 0.12in /  3mm
05:09 41.1 °F /  5.1 °C 38.4 °F /  3.6 °C 29.21in /  989.1hPa Calm   9.0mph /  14.5km/h 90% 0.12in /  3mm
05:14 41.0 °F /  5 °C 38.3 °F /  3.5 °C 29.20in /  988.7hPa SSW 5.0mph /  8km/h 12.0mph /  19.3km/h 90% 0.12in /  3mm
05:19 40.8 °F /  4.9 °C 38.1 °F /  3.4 °C 29.20in /  988.7hPa SW 4.0mph /  6.4km/h 12.0mph /  19.3km/h 90% 0.12in /  3mm
05:24 40.5 °F /  4.7 °C 37.5 °F /  3.1 °C 29.20in /  988.7hPa SW 7.0mph /  11.3km/h 12.0mph /  19.3km/h 89% 0.12in /  3mm
05:29 40.3 °F /  4.6 °C 37.3 °F /  2.9 °C 29.21in /  989.1hPa SSW 4.0mph /  6.4km/h 12.0mph /  19.3km/h 89% 0.14in /  3.6mm
05:34 40.1 °F /  4.5 °C 37.4 °F /  3 °C 29.21in /  989.1hPa SSW 1.0mph /  1.6km/h 12.0mph /  19.3km/h 90% 0.14in /  3.6mm
05:39 40.0 °F /  4.4 °C 37.3 °F /  2.9 °C 29.21in /  989.1hPa SSW 4.0mph /  6.4km/h 12.0mph /  19.3km/h 90% 0.14in /  3.6mm
05:45 39.8 °F /  4.3 °C 37.1 °F /  2.8 °C 29.21in /  989.1hPa SW 7.0mph /  11.3km/h 15.0mph /  24.1km/h 90% 0.16in /  4.1mm
05:55 39.4 °F /  4.1 °C 36.4 °F /  2.4 °C 29.21in /  989.1hPa SW 6.0mph /  9.7km/h 18.0mph /  29km/h 89% 0.16in /  4.1mm
06:04 39.1 °F /  3.9 °C 36.1 °F /  2.3 °C 29.21in /  989.1hPa SW 3.0mph /  4.8km/h 22.0mph /  35.4km/h 89% 0.17in /  4.3mm
06:09 39.0 °F /  3.9 °C 36.0 °F /  2.2 °C 29.22in /  989.4hPa South 6.0mph /  9.7km/h 19.0mph /  30.6km/h 89% 0.17in /  4.3mm
06:14 38.9 °F /  3.8 °C 35.9 °F /  2.2 °C 29.22in /  989.4hPa South 5.0mph /  8km/h 19.0mph /  30.6km/h 89% 0.17in /  4.3mm
06:19 38.8 °F /  3.8 °C 35.8 °F /  2.1 °C 29.22in /  989.4hPa SSW 8.0mph /  12.9km/h 16.0mph /  25.7km/h 89% 0.18in /  4.6mm
06:24 38.7 °F /  3.7 °C 35.7 °F /  2.1 °C 29.22in /  989.4hPa SSW 4.0mph /  6.4km/h 16.0mph /  25.7km/h 89% 0.18in /  4.6mm
06:29 38.4 °F /  3.6 °C 35.4 °F /  1.9 °C 29.22in /  989.4hPa South 8.0mph /  12.9km/h 21.0mph /  33.8km/h 89% 0.19in /  4.8mm
06:34 38.3 °F /  3.5 °C 35.1 °F /  1.7 °C 29.22in /  989.4hPa South 7.0mph /  11.3km/h 21.0mph /  33.8km/h 88% 0.20in /  5.1mm
06:39 38.2 °F /  3.4 °C 35.0 °F /  1.7 °C 29.22in /  989.4hPa South 10.0mph /  16.1km/h 18.0mph /  29km/h 88% 0.21in /  5.3mm
06:44 38.2 °F /  3.4 °C 35.0 °F /  1.7 °C 29.22in /  989.4hPa SSW 8.0mph /  12.9km/h 19.0mph /  30.6km/h 88% 0.21in /  5.3mm
06:54 38.2 °F /  3.4 °C 35.0 °F /  1.7 °C 29.22in /  989.4hPa South 4.0mph /  6.4km/h 18.0mph /  29km/h 88% 0.21in /  5.3mm
06:59 38.2 °F /  3.4 °C 35.0 °F /  1.7 °C 29.22in /  989.4hPa South 7.0mph /  11.3km/h 17.0mph /  27.4km/h 88% 0.21in /  5.3mm
07:04 38.2 °F /  3.4 °C 35.0 °F /  1.7 °C 29.23in /  989.7hPa SSW 5.0mph /  8km/h 17.0mph /  27.4km/h 88% 0.21in /  5.3mm
07:09 38.2 °F /  3.4 °C 35.0 °F /  1.7 °C 29.23in /  989.7hPa SSW 3.0mph /  4.8km/h 14.0mph /  22.5km/h 88% 0.21in /  5.3mm
07:14 38.2 °F /  3.4 °C 35.0 °F /  1.7 °C 29.23in /  989.7hPa SSW 5.0mph /  8km/h 12.0mph /  19.3km/h 88% 0.21in /  5.3mm
07:19 38.3 °F /  3.5 °C 35.1 °F /  1.7 °C 29.23in /  989.7hPa SSW 2.0mph /  3.2km/h 12.0mph /  19.3km/h 88% 0.21in /  5.3mm
07:24 38.4 °F /  3.6 °C 35.2 °F /  1.8 °C 29.23in /  989.7hPa SSW 4.0mph /  6.4km/h 10.0mph /  16.1km/h 88% 0.21in /  5.3mm
07:29 38.5 °F /  3.6 °C 35.3 °F /  1.8 °C 29.24in /  990.1hPa SW 6.0mph /  9.7km/h 12.0mph /  19.3km/h 88% 0.21in /  5.3mm
07:34 38.4 °F /  3.6 °C 34.9 °F /  1.6 °C 29.24in /  990.1hPa WSW 4.0mph /  6.4km/h 12.0mph /  19.3km/h 87% 0.22in /  5.6mm
07:39 37.9 °F /  3.3 °C 34.4 °F /  1.3 °C 29.24in /  990.1hPa SW 7.0mph /  11.3km/h 15.0mph /  24.1km/h 87% 0.22in /  5.6mm
07:44 37.8 °F /  3.2 °C 34.6 °F /  1.4 °C 29.24in /  990.1hPa SW 5.0mph /  8km/h 15.0mph /  24.1km/h 88% 0.23in /  5.8mm
07:49 37.8 °F /  3.2 °C 34.6 °F /  1.4 °C 29.25in /  990.4hPa SW 7.0mph /  11.3km/h 17.0mph /  27.4km/h 88% 0.24in /  6.1mm
07:59 37.8 °F /  3.2 °C 34.6 °F /  1.4 °C 29.25in /  990.4hPa SSW 8.0mph /  12.9km/h 17.0mph /  27.4km/h 88% 0.24in /  6.1mm
08:04 37.8 °F /  3.2 °C 34.6 °F /  1.4 °C 29.25in /  990.4hPa SSW 8.0mph /  12.9km/h 17.0mph /  27.4km/h 88% 0.24in /  6.1mm
08:09 38.0 °F /  3.3 °C 34.8 °F /  1.6 °C 29.25in /  990.4hPa SSW 7.0mph /  11.3km/h 18.0mph /  29km/h 88% 0.24in /  6.1mm
08:14 38.2 °F /  3.4 °C 34.7 °F /  1.5 °C 29.25in /  990.4hPa SSW 5.0mph /  8km/h 18.0mph /  29km/h 87% 0.24in /  6.1mm
08:19 38.6 °F /  3.7 °C 35.4 °F /  1.9 °C 29.25in /  990.4hPa SSW 3.0mph /  4.8km/h 10.0mph /  16.1km/h 88% 0.24in /  6.1mm
08:24 39.1 °F /  3.9 °C 35.8 °F /  2.1 °C 29.25in /  990.4hPa SW 5.0mph /  8km/h 13.0mph /  20.9km/h 88% 0.24in /  6.1mm
08:29 39.2 °F /  4 °C 35.7 °F /  2.1 °C 29.25in /  990.4hPa SSW 8.0mph /  12.9km/h 16.0mph /  25.7km/h 87% 0.24in /  6.1mm
08:34 39.7 °F /  4.3 °C 36.2 °F /  2.3 °C 29.25in /  990.4hPa SSW 6.0mph /  9.7km/h 16.0mph /  25.7km/h 87% 0.24in /  6.1mm
08:39 40.5 °F /  4.7 °C 36.9 °F /  2.7 °C 29.25in /  990.4hPa SSW 5.0mph /  8km/h 13.0mph /  20.9km/h 87% 0.24in /  6.1mm
08:44 41.3 °F /  5.2 °C 37.7 °F /  3.2 °C 29.25in /  990.4hPa SSW 7.0mph /  11.3km/h 15.0mph /  24.1km/h 87% 0.24in /  6.1mm
08:54 41.2 °F /  5.1 °C 36.1 °F /  2.3 °C 29.26in /  990.7hPa SSW 10.0mph /  16.1km/h 18.0mph /  29km/h 82% 0.24in /  6.1mm
08:59 41.5 °F /  5.3 °C 36.1 °F /  2.3 °C 29.26in /  990.7hPa SSW 9.0mph /  14.5km/h 23.0mph /  37km/h 81% 0.24in /  6.1mm
09:04 41.6 °F /  5.3 °C 35.6 °F /  2 °C 29.26in /  990.7hPa SSW 8.0mph /  12.9km/h 23.0mph /  37km/h 79% 0.24in /  6.1mm
09:09 42.4 °F /  5.8 °C 36.4 °F /  2.4 °C 29.26in /  990.7hPa SSW 9.0mph /  14.5km/h 18.0mph /  29km/h 79% 0.24in /  6.1mm
09:14 42.7 °F /  5.9 °C 35.7 °F /  2.1 °C 29.26in /  990.7hPa SSW 7.0mph /  11.3km/h 22.0mph /  35.4km/h 76% 0.24in /  6.1mm
09:19 42.5 °F /  5.8 °C 34.5 °F /  1.4 °C 29.26in /  990.7hPa SSW 9.0mph /  14.5km/h 22.0mph /  35.4km/h 73% 0.24in /  6.1mm
09:24 42.1 °F /  5.6 °C 34.1 °F /  1.2 °C 29.26in /  990.7hPa SSW 10.0mph /  16.1km/h 24.0mph /  38.6km/h 73% 0.24in /  6.1mm
09:29 41.7 °F /  5.4 °C 34.0 °F /  1.1 °C 29.26in /  990.7hPa SSW 8.0mph /  12.9km/h 24.0mph /  38.6km/h 74% 0.24in /  6.1mm
09:35 41.4 °F /  5.2 °C 33.4 °F /  0.8 °C 29.27in /  991.1hPa SSW 8.0mph /  12.9km/h 17.0mph /  27.4km/h 73% 0.24in /  6.1mm
09:44 41.1 °F /  5.1 °C 33.5 °F /  0.8 °C 29.27in /  991.1hPa SSW 11.0mph /  17.7km/h 22.0mph /  35.4km/h 74% 0.24in /  6.1mm
09:49 41.7 °F /  5.4 °C 34.4 °F /  1.3 °C 29.27in /  991.1hPa SSW 6.0mph /  9.7km/h 22.0mph /  35.4km/h 75% 0.24in /  6.1mm
09:59 42.3 °F /  5.7 °C 34.3 °F /  1.3 °C 29.27in /  991.1hPa SSW 7.0mph /  11.3km/h 18.0mph /  29km/h 73% 0.24in /  6.1mm
10:04 42.4 °F /  5.8 °C 34.0 °F /  1.1 °C 29.27in /  991.1hPa SSW 11.0mph /  17.7km/h 22.0mph /  35.4km/h 72% 0.24in /  6.1mm
10:09 42.4 °F /  5.8 °C 34.0 °F /  1.1 °C 29.27in /  991.1hPa SSW 10.0mph /  16.1km/h 22.0mph /  35.4km/h 72% 0.24in /  6.1mm
10:14 42.3 °F /  5.7 °C 33.6 °F /  0.9 °C 29.27in /  991.1hPa SSW 8.0mph /  12.9km/h 22.0mph /  35.4km/h 71% 0.24in /  6.1mm
10:19 42.4 °F /  5.8 °C 34.4 °F /  1.3 °C 29.28in /  991.4hPa South 6.0mph /  9.7km/h 22.0mph /  35.4km/h 73% 0.24in /  6.1mm
10:24 42.1 °F /  5.6 °C 33.4 °F /  0.8 °C 29.28in /  991.4hPa South 10.0mph /  16.1km/h 19.0mph /  30.6km/h 71% 0.24in /  6.1mm
10:29 42.0 °F /  5.6 °C 33.6 °F /  0.9 °C 29.28in /  991.4hPa SSW 9.0mph /  14.5km/h 24.0mph /  38.6km/h 72% 0.24in /  6.1mm
10:34 42.5 °F /  5.8 °C 34.8 °F /  1.6 °C 29.28in /  991.4hPa SSW 4.0mph /  6.4km/h 24.0mph /  38.6km/h 74% 0.24in /  6.1mm
10:39 44.0 °F /  6.7 °C 36.3 °F /  2.4 °C 29.28in /  991.4hPa SW 6.0mph /  9.7km/h 12.0mph /  19.3km/h 74% 0.24in /  6.1mm
10:44 45.6 °F /  7.6 °C 36.4 °F /  2.4 °C 29.28in /  991.4hPa SSW 5.0mph /  8km/h 12.0mph /  19.3km/h 70% 0.24in /  6.1mm
10:50 45.5 °F /  7.5 °C 35.6 °F /  2 °C 29.28in /  991.4hPa SSW 6.0mph /  9.7km/h 21.0mph /  33.8km/h 68% 0.24in /  6.1mm
10:59 43.8 °F /  6.6 °C 34.3 °F /  1.3 °C 29.30in /  992.1hPa SSW 10.0mph /  16.1km/h 21.0mph /  33.8km/h 69% 0.24in /  6.1mm
11:04 41.3 °F /  5.2 °C 33.3 °F /  0.7 °C 29.30in /  992.1hPa SW 11.0mph /  17.7km/h 22.0mph /  35.4km/h 73% 0.24in /  6.1mm
11:09 40.4 °F /  4.7 °C 34.1 °F /  1.2 °C 29.30in /  992.1hPa SW 7.0mph /  11.3km/h 22.0mph /  35.4km/h 78% 0.24in /  6.1mm
11:14 40.7 °F /  4.8 °C 34.7 °F /  1.5 °C 29.30in /  992.1hPa SSW 10.0mph /  16.1km/h 18.0mph /  29km/h 79% 0.24in /  6.1mm
11:19 41.8 °F /  5.4 °C 36.4 °F /  2.4 °C 29.30in /  992.1hPa SSW 6.0mph /  9.7km/h 18.0mph /  29km/h 81% 0.24in /  6.1mm
11:24 43.3 °F /  6.3 °C 36.9 °F /  2.7 °C 29.30in /  992.1hPa SSW 9.0mph /  14.5km/h 16.0mph /  25.7km/h 78% 0.24in /  6.1mm
11:29 44.7 °F /  7.1 °C 37.6 °F /  3.1 °C 29.30in /  992.1hPa SW 9.0mph /  14.5km/h 15.0mph /  24.1km/h 76% 0.24in /  6.1mm
11:34 44.9 °F /  7.2 °C 35.7 °F /  2.1 °C 29.30in /  992.1hPa SSW 10.0mph /  16.1km/h 20.0mph /  32.2km/h 70% 0.24in /  6.1mm
11:39 44.7 °F /  7.1 °C 35.9 °F /  2.2 °C 29.30in /  992.1hPa SSW 6.0mph /  9.7km/h 20.0mph /  32.2km/h 71% 0.24in /  6.1mm
11:44 44.6 °F /  7 °C 35.1 °F /  1.7 °C 29.30in /  992.1hPa SSW 9.0mph /  14.5km/h 19.0mph /  30.6km/h 69% 0.24in /  6.1mm
11:49 45.3 °F /  7.4 °C 34.2 °F /  1.2 °C 29.30in /  992.1hPa SSW 8.0mph /  12.9km/h 21.0mph /  33.8km/h 65% 0.24in /  6.1mm
11:54 45.1 °F /  7.3 °C 33.3 °F /  0.7 °C 29.30in /  992.1hPa SW 9.0mph /  14.5km/h 22.0mph /  35.4km/h 63% 0.24in /  6.1mm
11:59 44.2 °F /  6.8 °C 33.2 °F /  0.7 °C 29.31in /  992.4hPa SW 10.0mph /  16.1km/h 24.0mph /  38.6km/h 65% 0.24in /  6.1mm
12:04 42.0 °F /  5.6 °C 34.3 °F /  1.3 °C 29.32in /  992.8hPa SW 8.0mph /  12.9km/h 24.0mph /  38.6km/h 74% 0.24in /  6.1mm
12:09 42.7 °F /  5.9 °C 37.6 °F /  3.1 °C 29.31in /  992.4hPa SW 3.0mph /  4.8km/h 18.0mph /  29km/h 82% 0.24in /  6.1mm
12:14 44.5 °F /  6.9 °C 37.4 °F /  3 °C 29.31in /  992.4hPa SSW 11.0mph /  17.7km/h 20.0mph /  32.2km/h 76% 0.24in /  6.1mm
12:19 44.9 °F /  7.2 °C 36.1 °F /  2.3 °C 29.32in /  992.8hPa SSW 12.0mph /  19.3km/h 20.0mph /  32.2km/h 71% 0.24in /  6.1mm
12:24 44.4 °F /  6.9 °C 35.6 °F /  2 °C 29.32in /  992.8hPa SSW 10.0mph /  16.1km/h 22.0mph /  35.4km/h 71% 0.24in /  6.1mm
12:29 44.2 °F /  6.8 °C 35.8 °F /  2.1 °C 29.32in /  992.8hPa SSW 9.0mph /  14.5km/h 22.0mph /  35.4km/h 72% 0.24in /  6.1mm
12:34 45.2 °F /  7.3 °C 36.7 °F /  2.6 °C 29.32in /  992.8hPa SSW 8.0mph /  12.9km/h 18.0mph /  29km/h 72% 0.24in /  6.1mm
12:44 46.2 °F /  7.9 °C 37.3 °F /  2.9 °C 29.32in /  992.8hPa SSW 8.0mph /  12.9km/h 20.0mph /  32.2km/h 71% 0.24in /  6.1mm
12:49 46.0 °F /  7.8 °C 35.3 °F /  1.8 °C 29.32in /  992.8hPa SSW 6.0mph /  9.7km/h 19.0mph /  30.6km/h 66% 0.24in /  6.1mm
12:54 46.8 °F /  8.2 °C 36.8 °F /  2.7 °C 29.32in /  992.8hPa SSW 5.0mph /  8km/h 21.0mph /  33.8km/h 68% 0.24in /  6.1mm
12:59 47.4 °F /  8.6 °C 35.4 °F /  1.9 °C 29.32in /  992.8hPa SW 12.0mph /  19.3km/h 21.0mph /  33.8km/h 63% 0.24in /  6.1mm
13:04 46.7 °F /  8.2 °C 34.0 °F /  1.1 °C 29.33in /  993.1hPa SSW 13.0mph /  20.9km/h 25.0mph /  40.2km/h 61% 0.24in /  6.1mm
13:09 46.7 °F /  8.2 °C 34.4 °F /  1.3 °C 29.32in /  992.8hPa SSW 11.0mph /  17.7km/h 25.0mph /  40.2km/h 62% 0.24in /  6.1mm
13:14 47.2 °F /  8.4 °C 34.4 °F /  1.3 °C 29.32in /  992.8hPa SW 13.0mph /  20.9km/h 25.0mph /  40.2km/h 61% 0.24in /  6.1mm
13:19 47.1 °F /  8.4 °C 33.5 °F /  0.8 °C 29.33in /  993.1hPa SSW 12.0mph /  19.3km/h 26.0mph /  41.8km/h 59% 0.24in /  6.1mm
13:24 47.1 °F /  8.4 °C 33.9 °F /  1.1 °C 29.33in /  993.1hPa SSW 10.0mph /  16.1km/h 26.0mph /  41.8km/h 60% 0.24in /  6.1mm
13:29 47.8 °F /  8.8 °C 35.0 °F /  1.7 °C 29.33in /  993.1hPa SSW 8.0mph /  12.9km/h 18.0mph /  29km/h 61% 0.24in /  6.1mm
13:34 47.2 °F /  8.4 °C 34.0 °F /  1.1 °C 29.33in /  993.1hPa SSW 9.0mph /  14.5km/h 21.0mph /  33.8km/h 60% 0.24in /  6.1mm
13:44 45.4 °F /  7.4 °C 35.5 °F /  1.9 °C 29.34in /  993.5hPa SSW 10.0mph /  16.1km/h 22.0mph /  35.4km/h 68% 0.24in /  6.1mm
13:49 45.0 °F /  7.2 °C 35.1 °F /  1.7 °C 29.34in /  993.5hPa SSW 7.0mph /  11.3km/h 25.0mph /  40.2km/h 68% 0.24in /  6.1mm
13:54 45.2 °F /  7.3 °C 35.3 °F /  1.8 °C 29.34in /  993.5hPa SSW 10.0mph /  16.1km/h 25.0mph /  40.2km/h 68% 0.24in /  6.1mm
14:04 46.0 °F /  7.8 °C 36.0 °F /  2.2 °C 29.34in /  993.5hPa South 7.0mph /  11.3km/h 18.0mph /  29km/h 68% 0.24in /  6.1mm
14:09 46.0 °F /  7.8 °C 35.3 °F /  1.8 °C 29.34in /  993.5hPa SSW 6.0mph /  9.7km/h 16.0mph /  25.7km/h 66% 0.24in /  6.1mm
14:14 46.2 °F /  7.9 °C 35.1 °F /  1.7 °C 29.34in /  993.5hPa SSW 10.0mph /  16.1km/h 20.0mph /  32.2km/h 65% 0.24in /  6.1mm
14:19 46.5 °F /  8.1 °C 35.4 °F /  1.9 °C 29.34in /  993.5hPa SSW 4.0mph /  6.4km/h 23.0mph /  37km/h 65% 0.24in /  6.1mm
14:24 46.9 °F /  8.3 °C 34.2 °F /  1.2 °C 29.34in /  993.5hPa SSW 9.0mph /  14.5km/h 23.0mph /  37km/h 61% 0.24in /  6.1mm
14:29 48.0 °F /  8.9 °C 34.4 °F /  1.3 °C 29.35in /  993.8hPa SSW 11.0mph /  17.7km/h 23.0mph /  37km/h 59% 0.24in /  6.1mm
14:34 48.8 °F /  9.3 °C 35.5 °F /  1.9 °C 29.35in /  993.8hPa SW 7.0mph /  11.3km/h 20.0mph /  32.2km/h 60% 0.24in /  6.1mm
14:40 48.0 °F /  8.9 °C 33.9 °F /  1.1 °C 29.35in /  993.8hPa SW 10.0mph /  16.1km/h 23.0mph /  37km/h 58% 0.24in /  6.1mm
14:45 46.9 °F /  8.3 °C 32.9 °F /  0.5 °C 29.36in /  994.1hPa SW 8.0mph /  12.9km/h 23.0mph /  37km/h 58% 0.24in /  6.1mm
14:54 44.7 °F /  7.1 °C 34.0 °F /  1.1 °C 29.37in /  994.5hPa SW 15.0mph /  24.1km/h 26.0mph /  41.8km/h 66% 0.24in /  6.1mm
14:59 42.9 °F /  6.1 °C 36.5 °F /  2.5 °C 29.37in /  994.5hPa SSW 6.0mph /  9.7km/h 26.0mph /  41.8km/h 78% 0.25in /  6.4mm
15:04 43.4 °F /  6.3 °C 37.6 °F /  3.1 °C 29.37in /  994.5hPa SSW 7.0mph /  11.3km/h 21.0mph /  33.8km/h 80% 0.25in /  6.4mm
15:09 43.7 °F /  6.5 °C 37.0 °F /  2.8 °C 29.37in /  994.5hPa SSW 9.0mph /  14.5km/h 17.0mph /  27.4km/h 77% 0.25in /  6.4mm
15:14 44.1 °F /  6.7 °C 36.0 °F /  2.2 °C 29.37in /  994.5hPa South 8.0mph /  12.9km/h 20.0mph /  32.2km/h 73% 0.25in /  6.4mm
15:19 45.1 °F /  7.3 °C 35.9 °F /  2.2 °C 29.37in /  994.5hPa South 8.0mph /  12.9km/h 20.0mph /  32.2km/h 70% 0.25in /  6.4mm
15:29 46.8 °F /  8.2 °C 36.0 °F /  2.2 °C 29.37in /  994.5hPa SSW 8.0mph /  12.9km/h 19.0mph /  30.6km/h 66% 0.25in /  6.4mm
15:39 47.2 °F /  8.4 °C 34.9 °F /  1.6 °C 29.37in /  994.5hPa SSW 11.0mph /  17.7km/h 24.0mph /  38.6km/h 62% 0.25in /  6.4mm
15:44 47.8 °F /  8.8 °C 35.8 °F /  2.1 °C 29.38in /  994.8hPa SW 10.0mph /  16.1km/h 22.0mph /  35.4km/h 63% 0.25in /  6.4mm
15:49 47.7 °F /  8.7 °C 34.5 °F /  1.4 °C 29.38in /  994.8hPa SSW 13.0mph /  20.9km/h 22.0mph /  35.4km/h 60% 0.25in /  6.4mm
15:54 46.8 °F /  8.2 °C 34.9 °F /  1.6 °C 29.38in /  994.8hPa SSW 9.0mph /  14.5km/h 21.0mph /  33.8km/h 63% 0.25in /  6.4mm
15:59 46.4 °F /  8 °C 34.9 °F /  1.6 °C 29.38in /  994.8hPa SSW 7.0mph /  11.3km/h 21.0mph /  33.8km/h 64% 0.25in /  6.4mm
16:04 46.6 °F /  8.1 °C 35.1 °F /  1.7 °C 29.38in /  994.8hPa SW 7.0mph /  11.3km/h 18.0mph /  29km/h 64% 0.25in /  6.4mm
16:09 46.8 °F /  8.2 °C 35.3 °F /  1.8 °C 29.39in /  995.1hPa SSW 6.0mph /  9.7km/h 18.0mph /  29km/h 64% 0.25in /  6.4mm
16:14 46.9 °F /  8.3 °C 35.4 °F /  1.9 °C 29.40in /  995.5hPa SSW 9.0mph /  14.5km/h 19.0mph /  30.6km/h 64% 0.25in /  6.4mm
16:19 46.9 °F /  8.3 °C 35.8 °F /  2.1 °C 29.40in /  995.5hPa SW 6.0mph /  9.7km/h 19.0mph /  30.6km/h 65% 0.25in /  6.4mm
16:24 46.9 °F /  8.3 °C 36.1 °F /  2.3 °C 29.40in /  995.5hPa SSW 3.0mph /  4.8km/h 15.0mph /  24.1km/h 66% 0.25in /  6.4mm
16:29 46.5 °F /  8.1 °C 35.0 °F /  1.7 °C 29.40in /  995.5hPa SSW 8.0mph /  12.9km/h 17.0mph /  27.4km/h 64% 0.25in /  6.4mm
16:34 46.3 °F /  7.9 °C 35.2 °F /  1.8 °C 29.40in /  995.5hPa SSW 7.0mph /  11.3km/h 17.0mph /  27.4km/h 65% 0.25in /  6.4mm
16:39 46.8 °F /  8.2 °C 35.7 °F /  2.1 °C 29.40in /  995.5hPa SSW 5.0mph /  8km/h 16.0mph /  25.7km/h 65% 0.25in /  6.4mm
16:44 46.9 °F /  8.3 °C 34.6 °F /  1.4 °C 29.41in /  995.8hPa SSW 9.0mph /  14.5km/h 21.0mph /  33.8km/h 62% 0.25in /  6.4mm
16:49 46.4 °F /  8 °C 34.1 °F /  1.2 °C 29.41in /  995.8hPa SSW 9.0mph /  14.5km/h 23.0mph /  37km/h 62% 0.25in /  6.4mm
16:54 46.1 °F /  7.8 °C 34.2 °F /  1.2 °C 29.41in /  995.8hPa SSW 10.0mph /  16.1km/h 23.0mph /  37km/h 63% 0.25in /  6.4mm
16:59 45.7 °F /  7.6 °C 34.6 °F /  1.4 °C 29.41in /  995.8hPa SSW 7.0mph /  11.3km/h 19.0mph /  30.6km/h 65% 0.25in /  6.4mm
17:04 45.7 °F /  7.6 °C 34.6 °F /  1.4 °C 29.41in /  995.8hPa SSW 6.0mph /  9.7km/h 20.0mph /  32.2km/h 65% 0.25in /  6.4mm
17:09 45.8 °F /  7.7 °C 34.3 °F /  1.3 °C 29.42in /  996.2hPa SSW 5.0mph /  8km/h 20.0mph /  32.2km/h 64% 0.25in /  6.4mm
17:14 46.0 °F /  7.8 °C 34.9 °F /  1.6 °C 29.42in /  996.2hPa SSW 7.0mph /  11.3km/h 15.0mph /  24.1km/h 65% 0.25in /  6.4mm
17:19 46.0 °F /  7.8 °C 34.5 °F /  1.4 °C 29.42in /  996.2hPa SSW 7.0mph /  11.3km/h 14.0mph /  22.5km/h 64% 0.25in /  6.4mm
17:24 46.1 °F /  7.8 °C 34.6 °F /  1.4 °C 29.42in /  996.2hPa South 9.0mph /  14.5km/h 18.0mph /  29km/h 64% 0.25in /  6.4mm
17:29 46.4 °F /  8 °C 34.5 °F /  1.4 °C 29.42in /  996.2hPa SSW 4.0mph /  6.4km/h 18.0mph /  29km/h 63% 0.25in /  6.4mm
17:34 46.4 °F /  8 °C 34.5 °F /  1.4 °C 29.42in /  996.2hPa SSW 5.0mph /  8km/h 15.0mph /  24.1km/h 63% 0.25in /  6.4mm
17:45 47.5 °F /  8.6 °C 35.5 °F /  1.9 °C 29.42in /  996.2hPa SW 1.0mph /  1.6km/h 17.0mph /  27.4km/h 63% 0.25in /  6.4mm
17:54 48.1 °F /  8.9 °C 34.0 °F /  1.1 °C 29.42in /  996.2hPa SSW 10.0mph /  16.1km/h 16.0mph /  25.7km/h 58% 0.25in /  6.4mm
17:59 47.7 °F /  8.7 °C 33.7 °F /  0.9 °C 29.42in /  996.2hPa SSW 7.0mph /  11.3km/h 16.0mph /  25.7km/h 58% 0.25in /  6.4mm
18:04 47.3 °F /  8.5 °C 33.7 °F /  0.9 °C 29.43in /  996.5hPa SSW 6.0mph /  9.7km/h 13.0mph /  20.9km/h 59% 0.25in /  6.4mm
18:09 46.7 °F /  8.2 °C 33.1 °F /  0.6 °C 29.42in /  996.2hPa South 6.0mph /  9.7km/h 17.0mph /  27.4km/h 59% 0.25in /  6.4mm
18:14 46.2 °F /  7.9 °C 33.5 °F /  0.8 °C 29.43in /  996.5hPa SSW 6.0mph /  9.7km/h 17.0mph /  27.4km/h 61% 0.25in /  6.4mm
18:24 45.8 °F /  7.7 °C 32.3 °F /  0.2 °C 29.43in /  996.5hPa SSW 9.0mph /  14.5km/h 20.0mph /  32.2km/h 59% 0.25in /  6.4mm
18:30 45.9 °F /  7.7 °C 32.0 °F /  0 °C 29.43in /  996.5hPa SSW 7.0mph /  11.3km/h 20.0mph /  32.2km/h 58% 0.25in /  6.4mm
18:39 45.9 °F /  7.7 °C 31.5 °F /  -0.3 °C 29.43in /  996.5hPa SSW 9.0mph /  14.5km/h 13.0mph /  20.9km/h 57% 0.25in /  6.4mm
18:44 45.8 °F /  7.7 °C 31.9 °F /  -0.1 °C 29.44in /  996.8hPa SSW 7.0mph /  11.3km/h 13.0mph /  20.9km/h 58% 0.25in /  6.4mm
18:49 45.6 °F /  7.6 °C 31.7 °F /  -0.2 °C 29.44in /  996.8hPa SW 8.0mph /  12.9km/h 16.0mph /  25.7km/h 58% 0.25in /  6.4mm
18:54 45.5 °F /  7.5 °C 32.0 °F /  0 °C 29.44in /  996.8hPa SW 5.0mph /  8km/h 16.0mph /  25.7km/h 59% 0.25in /  6.4mm
19:04 45.6 °F /  7.6 °C 32.1 °F /  0.1 °C 29.44in /  996.8hPa SSW 5.0mph /  8km/h 11.0mph /  17.7km/h 59% 0.25in /  6.4mm
19:09 45.7 °F /  7.6 °C 32.2 °F /  0.1 °C 29.44in /  996.8hPa South 3.0mph /  4.8km/h 13.0mph /  20.9km/h 59% 0.25in /  6.4mm
19:14 45.5 °F /  7.5 °C 32.0 °F /  0 °C 29.44in /  996.8hPa SSW 7.0mph /  11.3km/h 14.0mph /  22.5km/h 59% 0.25in /  6.4mm
19:19 45.6 °F /  7.6 °C 32.1 °F /  0.1 °C 29.45in /  997.2hPa SSW 6.0mph /  9.7km/h 17.0mph /  27.4km/h 59% 0.25in /  6.4mm
19:24 45.5 °F /  7.5 °C 32.0 °F /  0 °C 29.45in /  997.2hPa SSW 7.0mph /  11.3km/h 17.0mph /  27.4km/h 59% 0.25in /  6.4mm
19:30 45.3 °F /  7.4 °C 31.8 °F /  -0.1 °C 29.45in /  997.2hPa SW 7.0mph /  11.3km/h 15.0mph /  24.1km/h 59% 0.25in /  6.4mm
19:39 45.0 °F /  7.2 °C 31.5 °F /  -0.3 °C 29.46in /  997.5hPa SSW 3.0mph /  4.8km/h 16.0mph /  25.7km/h 59% 0.25in /  6.4mm
19:44 45.0 °F /  7.2 °C 31.5 °F /  -0.3 °C 29.46in /  997.5hPa SSW 2.0mph /  3.2km/h 11.0mph /  17.7km/h 59% 0.25in /  6.4mm
19:49 44.8 °F /  7.1 °C 30.9 °F /  -0.6 °C 29.46in /  997.5hPa SSW 4.0mph /  6.4km/h 10.0mph /  16.1km/h 58% 0.25in /  6.4mm
19:54 44.6 °F /  7 °C 30.7 °F /  -0.7 °C 29.47in /  997.9hPa SSW 3.0mph /  4.8km/h 10.0mph /  16.1km/h 58% 0.25in /  6.4mm
19:59 44.6 °F /  7 °C 30.7 °F /  -0.7 °C 29.47in /  997.9hPa SSW 2.0mph /  3.2km/h 12.0mph /  19.3km/h 58% 0.25in /  6.4mm
20:04 44.5 °F /  6.9 °C 30.6 °F /  -0.8 °C 29.48in /  998.2hPa SW 5.0mph /  8km/h 16.0mph /  25.7km/h 58% 0.25in /  6.4mm
20:09 44.4 °F /  6.9 °C 30.6 °F /  -0.8 °C 29.47in /  997.9hPa SSW 8.0mph /  12.9km/h 16.0mph /  25.7km/h 58% 0.25in /  6.4mm
20:14 44.4 °F /  6.9 °C 31.0 °F /  -0.6 °C 29.48in /  998.2hPa South 9.0mph /  14.5km/h 16.0mph /  25.7km/h 59% 0.25in /  6.4mm
20:19 44.3 °F /  6.8 °C 31.7 °F /  -0.2 °C 29.48in /  998.2hPa South 8.0mph /  12.9km/h 18.0mph /  29km/h 61% 0.25in /  6.4mm
20:24 44.3 °F /  6.8 °C 31.7 °F /  -0.2 °C 29.48in /  998.2hPa SSW 5.0mph /  8km/h 18.0mph /  29km/h 61% 0.25in /  6.4mm
20:29 44.3 °F /  6.8 °C 31.7 °F /  -0.2 °C 29.49in /  998.5hPa SSW 5.0mph /  8km/h 16.0mph /  25.7km/h 61% 0.25in /  6.4mm
20:34 44.2 °F /  6.8 °C 31.6 °F /  -0.2 °C 29.49in /  998.5hPa SSW 6.0mph /  9.7km/h 11.0mph /  17.7km/h 61% 0.25in /  6.4mm
20:44 44.1 °F /  6.7 °C 32.3 °F /  0.2 °C 29.49in /  998.5hPa SSW 4.0mph /  6.4km/h 11.0mph /  17.7km/h 63% 0.25in /  6.4mm
20:49 44.2 °F /  6.8 °C 32.4 °F /  0.2 °C 29.49in /  998.5hPa SSW 6.0mph /  9.7km/h 13.0mph /  20.9km/h 63% 0.25in /  6.4mm
20:59 44.1 °F /  6.7 °C 32.7 °F /  0.4 °C 29.50in /  998.9hPa SSW 7.0mph /  11.3km/h 15.0mph /  24.1km/h 64% 0.25in /  6.4mm
21:04 44.2 °F /  6.8 °C 32.8 °F /  0.4 °C 29.50in /  998.9hPa SSW 5.0mph /  8km/h 15.0mph /  24.1km/h 64% 0.25in /  6.4mm
21:09 44.1 °F /  6.7 °C 32.7 °F /  0.4 °C 29.50in /  998.9hPa South 6.0mph /  9.7km/h 15.0mph /  24.1km/h 64% 0.25in /  6.4mm
21:14 44.0 °F /  6.7 °C 32.6 °F /  0.3 °C 29.50in /  998.9hPa SSW 8.0mph /  12.9km/h 17.0mph /  27.4km/h 64% 0.25in /  6.4mm
21:19 44.0 °F /  6.7 °C 32.6 °F /  0.3 °C 29.50in /  998.9hPa SSW 7.0mph /  11.3km/h 18.0mph /  29km/h 64% 0.25in /  6.4mm
21:24 44.0 °F /  6.7 °C 32.6 °F /  0.3 °C 29.51in /  999.2hPa SSW 7.0mph /  11.3km/h 18.0mph /  29km/h 64% 0.25in /  6.4mm
21:29 43.9 °F /  6.6 °C 32.9 °F /  0.5 °C 29.51in /  999.2hPa SSW 7.0mph /  11.3km/h 18.0mph /  29km/h 65% 0.25in /  6.4mm
21:34 43.7 °F /  6.5 °C 33.1 °F /  0.6 °C 29.51in /  999.2hPa SSW 7.0mph /  11.3km/h 18.0mph /  29km/h 66% 0.25in /  6.4mm
21:39 43.5 °F /  6.4 °C 33.3 °F /  0.7 °C 29.51in /  999.2hPa South 4.0mph /  6.4km/h 16.0mph /  25.7km/h 67% 0.25in /  6.4mm
21:44 43.3 °F /  6.3 °C 33.1 °F /  0.6 °C 29.51in /  999.2hPa SSW 4.0mph /  6.4km/h 10.0mph /  16.1km/h 67% 0.25in /  6.4mm
21:49 43.2 °F /  6.2 °C 33.4 °F /  0.8 °C 29.51in /  999.2hPa SSW 2.0mph /  3.2km/h 10.0mph /  16.1km/h 68% 0.25in /  6.4mm
21:54 43.1 °F /  6.2 °C 33.3 °F /  0.7 °C 29.52in /  999.5hPa SSW 6.0mph /  9.7km/h 11.0mph /  17.7km/h 68% 0.25in /  6.4mm
22:04 42.8 °F /  6 °C 33.7 °F /  0.9 °C 29.52in /  999.5hPa South 3.0mph /  4.8km/h 12.0mph /  19.3km/h 70% 0.25in /  6.4mm
22:09 42.7 °F /  5.9 °C 34.0 °F /  1.1 °C 29.52in /  999.5hPa SSW 2.0mph /  3.2km/h 12.0mph /  19.3km/h 71% 0.25in /  6.4mm
22:14 42.6 °F /  5.9 °C 33.9 °F /  1.1 °C 29.52in /  999.5hPa South 6.0mph /  9.7km/h 11.0mph /  17.7km/h 71% 0.25in /  6.4mm
22:19 42.5 °F /  5.8 °C 33.8 °F /  1 °C 29.52in /  999.5hPa SSW 6.0mph /  9.7km/h 12.0mph /  19.3km/h 71% 0.25in /  6.4mm
22:24 42.5 °F /  5.8 °C 33.4 °F /  0.8 °C 29.52in /  999.5hPa SW 9.0mph /  14.5km/h 17.0mph /  27.4km/h 70% 0.25in /  6.4mm
22:29 42.5 °F /  5.8 °C 33.4 °F /  0.8 °C 29.52in /  999.5hPa SSW 7.0mph /  11.3km/h 17.0mph /  27.4km/h 70% 0.25in /  6.4mm
22:34 42.4 °F /  5.8 °C 33.3 °F /  0.7 °C 29.52in /  999.5hPa SSW 4.0mph /  6.4km/h 14.0mph /  22.5km/h 70% 0.25in /  6.4mm
22:39 42.4 °F /  5.8 °C 33.3 °F /  0.7 °C 29.53in /  999.9hPa SSW 7.0mph /  11.3km/h 15.0mph /  24.1km/h 70% 0.25in /  6.4mm
22:44 42.2 °F /  5.7 °C 32.8 °F /  0.4 °C 29.53in /  999.9hPa SSW 8.0mph /  12.9km/h 15.0mph /  24.1km/h 69% 0.25in /  6.4mm
22:49 42.2 °F /  5.7 °C 32.8 °F /  0.4 °C 29.53in /  999.9hPa SSW 3.0mph /  4.8km/h 14.0mph /  22.5km/h 69% 0.25in /  6.4mm
22:54 42.0 °F /  5.6 °C 32.6 °F /  0.3 °C 29.53in /  999.9hPa South 4.0mph /  6.4km/h 14.0mph /  22.5km/h 69% 0.25in /  6.4mm
22:59 41.9 °F /  5.5 °C 32.5 °F /  0.3 °C 29.53in /  999.9hPa SSW 4.0mph /  6.4km/h 13.0mph /  20.9km/h 69% 0.25in /  6.4mm
23:04 41.9 °F /  5.5 °C 32.5 °F /  0.3 °C 29.53in /  999.9hPa SSW 6.0mph /  9.7km/h 12.0mph /  19.3km/h 69% 0.25in /  6.4mm
23:09 41.9 °F /  5.5 °C 32.5 °F /  0.3 °C 29.53in /  999.9hPa SSW 5.0mph /  8km/h 13.0mph /  20.9km/h 69% 0.25in /  6.4mm
23:14 41.8 °F /  5.4 °C 32.4 °F /  0.2 °C 29.53in /  999.9hPa SSW 7.0mph /  11.3km/h 14.0mph /  22.5km/h 69% 0.25in /  6.4mm
23:19 41.7 °F /  5.4 °C 32.3 °F /  0.2 °C 29.54in /  1000.2hPa SW 6.0mph /  9.7km/h 14.0mph /  22.5km/h 69% 0.25in /  6.4mm
23:24 41.6 °F /  5.3 °C 32.2 °F /  0.1 °C 29.54in /  1000.2hPa SSW 5.0mph /  8km/h 13.0mph /  20.9km/h 69% 0.25in /  6.4mm
23:29 41.5 °F /  5.3 °C 32.5 °F /  0.3 °C 29.54in /  1000.2hPa SW 4.0mph /  6.4km/h 14.0mph /  22.5km/h 70% 0.25in /  6.4mm
23:34 41.4 °F /  5.2 °C 32.4 °F /  0.2 °C 29.54in /  1000.2hPa SSW 5.0mph /  8km/h 14.0mph /  22.5km/h 70% 0.25in /  6.4mm
23:39 41.2 °F /  5.1 °C 32.2 °F /  0.1 °C 29.54in /  1000.2hPa SSW 5.0mph /  8km/h 11.0mph /  17.7km/h 70% 0.25in /  6.4mm
23:44 41.0 °F /  5 °C 32.3 °F /  0.2 °C 29.55in /  1000.6hPa SSW 5.0mph /  8km/h 11.0mph /  17.7km/h 71% 0.25in /  6.4mm
23:49 40.7 °F /  4.8 °C 32.4 °F /  0.2 °C 29.55in /  1000.6hPa SSW 4.0mph /  6.4km/h 12.0mph /  19.3km/h 72% 0.25in /  6.4mm
23:54 40.5 °F /  4.7 °C 32.2 °F /  0.1 °C 29.55in /  1000.6hPa SW 1.0mph /  1.6km/h 12.0mph /  19.3km/h 72% 0.25in /  6.4mm
23:59 40.2 °F /  4.6 °C 32.2 °F /  0.1 °C 29.55in /  1000.6hPa Calm   9.0mph /  14.5km/h 73% 0.25in /  6.4mm
Westford Weather
Compliments of Weather Underground

 
 
Current Radar Loop:

Copyright © WestfordWeather.net 2007-2014. All rights reserved.